Startpagina
METAR-TAF:

METAR-TAF

Vliegvelden :

Hoorn-a, Nederland

Productieplatform

breedte: 52-55-05N, lengte: 4-09-01E, hoogte: 41 m

Actueel weer

Dit bericht is 39 minuten geleden gemaakt, om 09:25 UTC
Wind 15 kt uit het zuiden
Temperatuur 5°C
Vochtigheid 87%
Druk 1017 hPa
Zicht: 5000 m
Gebroken wolken op 500 ft
Gebroken wolken op 2800 ft
motregen

METAR: EHQE 190925Z AUTO 19015KT 5000 DZ BKN005 BKN028 05/03 Q1017 W///H///

Tijdstip: 11:04 (10:04 UTC)


TAF: ontbreekt

Waarnemingen en weersverwachtingen van meer dan 4000 vliegvelden (METAR en TAF).

De beschikbare stations zijn de gele en rode punten op de kaart.

Ga met uw muis naar het station om de naam te zien.

Klik dan om waarnemingen en weersverwachtingen te zien.

kaart wijzigen: klik op de groene knoppen met een zwart kruis om in te zoomen, op de groene knop met een streepje om uit te zoomen of op de groene pijlen voor aangrenzende kaarten.


METAR-TAF: